sensor_id;sensor_type;location;lat;lon;timestamp;temperature;humidity
17170;DHT22;8700;48.222;16.342;2023-04-25T00:02:24;12.60;99.90
17170;DHT22;8700;48.222;16.342;2023-04-25T00:05:47;12.60;99.90
17170;DHT22;8700;48.222;16.342;2023-04-25T00:09:09;12.70;99.90
17170;DHT22;8700;48.222;16.342;2023-04-25T00:12:33;12.60;99.90
17170;DHT22;8700;48.222;16.342;2023-04-25T00:15:54;12.50;99.90
17170;DHT22;8700;48.222;16.342;2023-04-25T00:19:16;12.50;99.90
17170;DHT22;8700;48.222;16.342;2023-04-25T00:22:40;12.50;99.90
17170;DHT22;8700;48.222;16.342;2023-04-25T00:26:02;12.50;99.90
17170;DHT22;8700;48.222;16.342;2023-04-25T00:29:25;12.60;99.90
17170;DHT22;8700;48.222;16.342;2023-04-25T00:32:47;12.50;99.90
17170;DHT22;8700;48.222;16.342;2023-04-25T00:36:08;12.50;99.90
17170;DHT22;8700;48.222;16.342;2023-04-25T00:39:30;12.50;99.90
17170;DHT22;8700;48.222;16.342;2023-04-25T00:42:52;12.60;99.90
17170;DHT22;8700;48.222;16.342;2023-04-25T00:46:15;12.50;99.90
17170;DHT22;8700;48.222;16.342;2023-04-25T00:49:40;12.50;99.90
17170;DHT22;8700;48.222;16.342;2023-04-25T00:53:01;12.30;99.90
17170;DHT22;8700;48.222;16.342;2023-04-25T00:56:26;12.50;99.90
17170;DHT22;8700;48.222;16.342;2023-04-25T00:59:48;12.50;99.90
17170;DHT22;8700;48.222;16.342;2023-04-25T01:03:13;12.40;99.90
17170;DHT22;8700;48.222;16.342;2023-04-25T01:06:36;12.40;99.90
17170;DHT22;8700;48.222;16.342;2023-04-25T01:09:58;12.50;99.90
17170;DHT22;8700;48.222;16.342;2023-04-25T01:13:19;12.50;99.90
17170;DHT22;8700;48.222;16.342;2023-04-25T01:16:40;12.30;99.90
17170;DHT22;8700;48.222;16.342;2023-04-25T01:20:05;12.30;99.90
17170;DHT22;8700;48.222;16.342;2023-04-25T01:23:31;12.20;99.90
17170;DHT22;8700;48.222;16.342;2023-04-25T01:26:54;12.20;99.90
17170;DHT22;8700;48.222;16.342;2023-04-25T01:30:18;12.30;99.90
17170;DHT22;8700;48.222;16.342;2023-04-25T01:33:39;12.40;99.90
17170;DHT22;8700;48.222;16.342;2023-04-25T01:37:01;12.40;99.90
17170;DHT22;8700;48.222;16.342;2023-04-25T01:40:24;12.30;99.90
17170;DHT22;8700;48.222;16.342;2023-04-25T01:43:46;12.40;99.90
17170;DHT22;8700;48.222;16.342;2023-04-25T01:47:07;12.40;99.90
17170;DHT22;8700;48.222;16.342;2023-04-25T01:50:28;12.50;99.90
17170;DHT22;8700;48.222;16.342;2023-04-25T01:53:51;12.40;99.90
17170;DHT22;8700;48.222;16.342;2023-04-25T01:57:14;12.30;99.90
17170;DHT22;8700;48.222;16.342;2023-04-25T02:00:36;12.40;99.90
17170;DHT22;8700;48.222;16.342;2023-04-25T02:03:58;12.30;99.90
17170;DHT22;8700;48.222;16.342;2023-04-25T02:07:20;12.20;99.90
17170;DHT22;8700;48.222;16.342;2023-04-25T02:10:41;12.40;99.90
17170;DHT22;8700;48.222;16.342;2023-04-25T02:14:05;12.10;99.90
17170;DHT22;8700;48.222;16.342;2023-04-25T02:17:26;12.20;99.90
17170;DHT22;8700;48.222;16.342;2023-04-25T02:20:48;12.20;99.90
17170;DHT22;8700;48.222;16.342;2023-04-25T02:24:10;12.30;99.90
17170;DHT22;8700;48.222;16.342;2023-04-25T02:27:31;12.20;99.90
17170;DHT22;8700;48.222;16.342;2023-04-25T02:30:53;12.20;99.90
17170;DHT22;8700;48.222;16.342;2023-04-25T02:34:15;12.10;99.90
17170;DHT22;8700;48.222;16.342;2023-04-25T02:37:39;12.10;99.90
17170;DHT22;8700;48.222;16.342;2023-04-25T02:41:01;12.00;99.90
17170;DHT22;8700;48.222;16.342;2023-04-25T02:44:22;11.70;99.90
17170;DHT22;8700;48.222;16.342;2023-04-25T02:47:45;12.00;99.90
17170;DHT22;8700;48.222;16.342;2023-04-25T02:51:07;12.00;99.90
17170;DHT22;8700;48.222;16.342;2023-04-25T02:54:29;11.90;99.90
17170;DHT22;8700;48.222;16.342;2023-04-25T02:57:51;11.80;99.90
17170;DHT22;8700;48.222;16.342;2023-04-25T03:01:12;11.90;99.90
17170;DHT22;8700;48.222;16.342;2023-04-25T03:04:35;11.80;99.90
17170;DHT22;8700;48.222;16.342;2023-04-25T03:07:59;11.90;99.90
17170;DHT22;8700;48.222;16.342;2023-04-25T03:11:20;11.80;99.90
17170;DHT22;8700;48.222;16.342;2023-04-25T03:14:45;11.70;99.90
17170;DHT22;8700;48.222;16.342;2023-04-25T03:18:06;11.70;99.90
17170;DHT22;8700;48.222;16.342;2023-04-25T03:21:29;11.70;99.90
17170;DHT22;8700;48.222;16.342;2023-04-25T03:24:51;11.70;99.90
17170;DHT22;8700;48.222;16.342;2023-04-25T03:28:13;11.70;99.90
17170;DHT22;8700;48.222;16.342;2023-04-25T03:31:35;11.60;99.90
17170;DHT22;8700;48.222;16.342;2023-04-25T03:34:57;11.60;99.90
17170;DHT22;8700;48.222;16.342;2023-04-25T03:38:19;11.70;99.90
17170;DHT22;8700;48.222;16.342;2023-04-25T03:41:41;11.70;99.90
17170;DHT22;8700;48.222;16.342;2023-04-25T03:45:03;11.60;99.90
17170;DHT22;8700;48.222;16.342;2023-04-25T03:48:25;11.60;99.90
17170;DHT22;8700;48.222;16.342;2023-04-25T03:51:46;11.60;99.90
17170;DHT22;8700;48.222;16.342;2023-04-25T03:55:13;11.50;99.90
17170;DHT22;8700;48.222;16.342;2023-04-25T03:58:34;11.50;99.90
17170;DHT22;8700;48.222;16.342;2023-04-25T04:01:59;11.50;99.90
17170;DHT22;8700;48.222;16.342;2023-04-25T04:05:20;11.50;99.90
17170;DHT22;8700;48.222;16.342;2023-04-25T04:08:43;11.40;99.90
17170;DHT22;8700;48.222;16.342;2023-04-25T04:12:06;11.40;99.90
17170;DHT22;8700;48.222;16.342;2023-04-25T04:15:29;11.40;99.90
17170;DHT22;8700;48.222;16.342;2023-04-25T04:18:52;11.40;99.90
17170;DHT22;8700;48.222;16.342;2023-04-25T04:22:14;11.30;99.90
17170;DHT22;8700;48.222;16.342;2023-04-25T04:25:35;11.50;99.90
17170;DHT22;8700;48.222;16.342;2023-04-25T04:28:58;11.40;99.90
17170;DHT22;8700;48.222;16.342;2023-04-25T04:32:20;11.50;99.90
17170;DHT22;8700;48.222;16.342;2023-04-25T04:35:45;11.50;99.90
17170;DHT22;8700;48.222;16.342;2023-04-25T04:39:07;11.30;99.90
17170;DHT22;8700;48.222;16.342;2023-04-25T04:42:29;11.40;99.90
17170;DHT22;8700;48.222;16.342;2023-04-25T04:45:52;11.30;99.90
17170;DHT22;8700;48.222;16.342;2023-04-25T04:49:16;11.30;99.90
17170;DHT22;8700;48.222;16.342;2023-04-25T04:52:38;11.30;99.90
17170;DHT22;8700;48.222;16.342;2023-04-25T04:55:59;11.20;99.90
17170;DHT22;8700;48.222;16.342;2023-04-25T04:59:21;11.30;99.90
17170;DHT22;8700;48.222;16.342;2023-04-25T05:02:44;11.30;99.90
17170;DHT22;8700;48.222;16.342;2023-04-25T05:06:06;11.20;99.90
17170;DHT22;8700;48.222;16.342;2023-04-25T05:09:28;11.10;99.90
17170;DHT22;8700;48.222;16.342;2023-04-25T05:12:50;11.10;99.90
17170;DHT22;8700;48.222;16.342;2023-04-25T05:16:11;11.40;99.90
17170;DHT22;8700;48.222;16.342;2023-04-25T05:19:34;11.40;99.90
17170;DHT22;8700;48.222;16.342;2023-04-25T05:23:01;11.50;99.90
17170;DHT22;8700;48.222;16.342;2023-04-25T05:26:23;11.20;99.90
17170;DHT22;8700;48.222;16.342;2023-04-25T05:29:46;11.20;99.90
17170;DHT22;8700;48.222;16.342;2023-04-25T05:33:07;11.10;99.90
17170;DHT22;8700;48.222;16.342;2023-04-25T05:36:30;11.00;99.90
17170;DHT22;8700;48.222;16.342;2023-04-25T05:39:52;11.00;99.90
17170;DHT22;8700;48.222;16.342;2023-04-25T05:43:14;11.10;99.90
17170;DHT22;8700;48.222;16.342;2023-04-25T05:46:36;11.30;99.90
17170;DHT22;8700;48.222;16.342;2023-04-25T05:49:58;11.60;99.90
17170;DHT22;8700;48.222;16.342;2023-04-25T05:53:21;11.80;99.90
17170;DHT22;8700;48.222;16.342;2023-04-25T05:56:43;11.90;99.90
17170;DHT22;8700;48.222;16.342;2023-04-25T06:00:05;12.00;99.90
17170;DHT22;8700;48.222;16.342;2023-04-25T06:03:29;12.10;99.90
17170;DHT22;8700;48.222;16.342;2023-04-25T06:06:51;12.30;99.90
17170;DHT22;8700;48.222;16.342;2023-04-25T06:10:23;12.40;99.90
17170;DHT22;8700;48.222;16.342;2023-04-25T06:13:45;12.60;99.90
17170;DHT22;8700;48.222;16.342;2023-04-25T06:17:07;12.80;99.90
17170;DHT22;8700;48.222;16.342;2023-04-25T06:20:28;12.90;99.90
17170;DHT22;8700;48.222;16.342;2023-04-25T06:23:50;12.80;99.90
17170;DHT22;8700;48.222;16.342;2023-04-25T06:27:12;12.90;99.90
17170;DHT22;8700;48.222;16.342;2023-04-25T06:30:34;13.00;99.90
17170;DHT22;8700;48.222;16.342;2023-04-25T06:33:55;13.10;99.90
17170;DHT22;8700;48.222;16.342;2023-04-25T06:37:17;13.20;99.90
17170;DHT22;8700;48.222;16.342;2023-04-25T06:40:38;13.30;99.90
17170;DHT22;8700;48.222;16.342;2023-04-25T06:44:01;13.40;99.90
17170;DHT22;8700;48.222;16.342;2023-04-25T06:47:22;13.60;99.90
17170;DHT22;8700;48.222;16.342;2023-04-25T06:50:44;13.50;99.90
17170;DHT22;8700;48.222;16.342;2023-04-25T06:54:05;13.70;99.90
17170;DHT22;8700;48.222;16.342;2023-04-25T06:57:27;13.80;99.90
17170;DHT22;8700;48.222;16.342;2023-04-25T07:00:50;13.90;99.90
17170;DHT22;8700;48.222;16.342;2023-04-25T07:04:11;14.10;99.90
17170;DHT22;8700;48.222;16.342;2023-04-25T07:07:32;14.10;99.90
17170;DHT22;8700;48.222;16.342;2023-04-25T07:10:54;14.00;99.90
17170;DHT22;8700;48.222;16.342;2023-04-25T07:14:18;14.00;99.90
17170;DHT22;8700;48.222;16.342;2023-04-25T07:17:41;14.00;99.90
17170;DHT22;8700;48.222;16.342;2023-04-25T07:21:03;14.00;99.90
17170;DHT22;8700;48.222;16.342;2023-04-25T07:24:25;14.30;99.90
17170;DHT22;8700;48.222;16.342;2023-04-25T07:27:46;14.10;99.90
17170;DHT22;8700;48.222;16.342;2023-04-25T07:31:07;14.30;99.90
17170;DHT22;8700;48.222;16.342;2023-04-25T07:34:31;14.40;99.90
17170;DHT22;8700;48.222;16.342;2023-04-25T07:37:52;14.50;99.90
17170;DHT22;8700;48.222;16.342;2023-04-25T07:41:14;14.60;99.90
17170;DHT22;8700;48.222;16.342;2023-04-25T07:44:35;14.70;99.90
17170;DHT22;8700;48.222;16.342;2023-04-25T07:47:58;15.10;99.90
17170;DHT22;8700;48.222;16.342;2023-04-25T07:51:21;15.20;99.90
17170;DHT22;8700;48.222;16.342;2023-04-25T07:54:42;15.10;99.90
17170;DHT22;8700;48.222;16.342;2023-04-25T07:58:07;15.30;99.90
17170;DHT22;8700;48.222;16.342;2023-04-25T08:01:29;15.30;99.90
17170;DHT22;8700;48.222;16.342;2023-04-25T08:04:50;15.60;99.90
17170;DHT22;8700;48.222;16.342;2023-04-25T08:08:13;15.80;99.90
17170;DHT22;8700;48.222;16.342;2023-04-25T08:11:35;16.00;99.90
17170;DHT22;8700;48.222;16.342;2023-04-25T08:14:57;16.80;99.90
17170;DHT22;8700;48.222;16.342;2023-04-25T08:18:18;18.00;99.90
17170;DHT22;8700;48.222;16.342;2023-04-25T08:21:40;18.80;99.90
17170;DHT22;8700;48.222;16.342;2023-04-25T08:25:03;20.00;95.50
17170;DHT22;8700;48.222;16.342;2023-04-25T08:28:25;20.10;92.60
17170;DHT22;8700;48.222;16.342;2023-04-25T08:31:47;20.20;90.60
17170;DHT22;8700;48.222;16.342;2023-04-25T08:35:09;20.30;90.80
17170;DHT22;8700;48.222;16.342;2023-04-25T08:38:31;21.10;87.10
17170;DHT22;8700;48.222;16.342;2023-04-25T08:41:54;21.70;86.80
17170;DHT22;8700;48.222;16.342;2023-04-25T08:45:16;22.10;80.30
17170;DHT22;8700;48.222;16.342;2023-04-25T08:48:39;22.70;79.70
17170;DHT22;8700;48.222;16.342;2023-04-25T08:52:03;23.00;78.30
17170;DHT22;8700;48.222;16.342;2023-04-25T08:55:26;23.60;74.50
17170;DHT22;8700;48.222;16.342;2023-04-25T08:58:49;23.60;72.10
17170;DHT22;8700;48.222;16.342;2023-04-25T09:02:11;22.20;72.90
17170;DHT22;8700;48.222;16.342;2023-04-25T09:05:34;20.60;78.20
17170;DHT22;8700;48.222;16.342;2023-04-25T09:09:04;19.70;81.90
17170;DHT22;8700;48.222;16.342;2023-04-25T09:12:28;18.50;89.60
17170;DHT22;8700;48.222;16.342;2023-04-25T09:15:52;18.60;90.60
17170;DHT22;8700;48.222;16.342;2023-04-25T09:19:21;18.30;91.70
17170;DHT22;8700;48.222;16.342;2023-04-25T09:22:45;17.70;96.60
17170;DHT22;8700;48.222;16.342;2023-04-25T09:26:08;17.10;98.50
17170;DHT22;8700;48.222;16.342;2023-04-25T09:29:30;16.80;99.10
17170;DHT22;8700;48.222;16.342;2023-04-25T09:32:56;17.00;99.20
17170;DHT22;8700;48.222;16.342;2023-04-25T09:36:17;16.80;99.90
17170;DHT22;8700;48.222;16.342;2023-04-25T09:39:40;15.60;99.90
17170;DHT22;8700;48.222;16.342;2023-04-25T09:43:01;15.10;99.90
17170;DHT22;8700;48.222;16.342;2023-04-25T09:46:23;15.10;99.90
17170;DHT22;8700;48.222;16.342;2023-04-25T09:49:46;15.40;99.90
17170;DHT22;8700;48.222;16.342;2023-04-25T09:53:08;15.90;99.90
17170;DHT22;8700;48.222;16.342;2023-04-25T09:56:35;16.50;99.90
17170;DHT22;8700;48.222;16.342;2023-04-25T10:00:00;17.50;99.90
17170;DHT22;8700;48.222;16.342;2023-04-25T10:03:30;18.70;99.90
17170;DHT22;8700;48.222;16.342;2023-04-25T10:06:56;18.80;98.60
17170;DHT22;8700;48.222;16.342;2023-04-25T10:10:19;18.10;98.60
17170;DHT22;8700;48.222;16.342;2023-04-25T10:13:46;17.70;95.30
17170;DHT22;8700;48.222;16.342;2023-04-25T10:17:10;18.30;96.10
17170;DHT22;8700;48.222;16.342;2023-04-25T10:20:35;19.00;93.80
17170;DHT22;8700;48.222;16.342;2023-04-25T10:23:58;19.30;94.30
17170;DHT22;8700;48.222;16.342;2023-04-25T10:27:22;20.60;92.20
17170;DHT22;8700;48.222;16.342;2023-04-25T10:30:57;21.90;85.10
17170;DHT22;8700;48.222;16.342;2023-04-25T10:34:24;21.70;84.60
17170;DHT22;8700;48.222;16.342;2023-04-25T10:38:02;21.20;84.70
17170;DHT22;8700;48.222;16.342;2023-04-25T10:41:26;20.20;88.30
17170;DHT22;8700;48.222;16.342;2023-04-25T10:45:01;19.30;87.90
17170;DHT22;8700;48.222;16.342;2023-04-25T10:48:27;18.50;91.50
17170;DHT22;8700;48.222;16.342;2023-04-25T10:51:48;18.90;90.60
17170;DHT22;8700;48.222;16.342;2023-04-25T10:55:10;20.40;89.60
17170;DHT22;8700;48.222;16.342;2023-04-25T10:58:33;21.10;79.20
17170;DHT22;8700;48.222;16.342;2023-04-25T11:01:56;21.80;80.50
17170;DHT22;8700;48.222;16.342;2023-04-25T11:05:29;23.40;74.50
17170;DHT22;8700;48.222;16.342;2023-04-25T11:08:52;23.60;70.10
17170;DHT22;8700;48.222;16.342;2023-04-25T11:12:14;24.40;69.50
17170;DHT22;8700;48.222;16.342;2023-04-25T11:15:38;25.00;65.80
17170;DHT22;8700;48.222;16.342;2023-04-25T11:19:00;24.70;61.20
17170;DHT22;8700;48.222;16.342;2023-04-25T11:22:21;23.80;62.50
17170;DHT22;8700;48.222;16.342;2023-04-25T11:25:44;22.90;64.80
17170;DHT22;8700;48.222;16.342;2023-04-25T11:29:05;22.00;65.10
17170;DHT22;8700;48.222;16.342;2023-04-25T11:32:28;20.30;70.90
17170;DHT22;8700;48.222;16.342;2023-04-25T11:35:49;19.00;76.90
17170;DHT22;8700;48.222;16.342;2023-04-25T11:39:11;17.70;84.70
17170;DHT22;8700;48.222;16.342;2023-04-25T11:42:33;15.90;99.90
17170;DHT22;8700;48.222;16.342;2023-04-25T11:45:54;14.30;99.90
17170;DHT22;8700;48.222;16.342;2023-04-25T11:49:19;13.80;99.90
17170;DHT22;8700;48.222;16.342;2023-04-25T11:52:43;13.70;99.90
17170;DHT22;8700;48.222;16.342;2023-04-25T11:56:09;14.00;99.90
17170;DHT22;8700;48.222;16.342;2023-04-25T11:59:32;14.30;99.90
17170;DHT22;8700;48.222;16.342;2023-04-25T12:02:55;14.40;99.90
17170;DHT22;8700;48.222;16.342;2023-04-25T12:06:20;14.50;99.90
17170;DHT22;8700;48.222;16.342;2023-04-25T12:09:42;14.60;99.90
17170;DHT22;8700;48.222;16.342;2023-04-25T12:13:18;15.20;99.90
17170;DHT22;8700;48.222;16.342;2023-04-25T12:16:41;15.90;99.90
17170;DHT22;8700;48.222;16.342;2023-04-25T12:20:07;16.10;99.90
17170;DHT22;8700;48.222;16.342;2023-04-25T12:23:30;16.40;99.90
17170;DHT22;8700;48.222;16.342;2023-04-25T12:26:53;16.80;99.90
17170;DHT22;8700;48.222;16.342;2023-04-25T12:30:16;16.30;99.90
17170;DHT22;8700;48.222;16.342;2023-04-25T12:33:37;15.90;99.90
17170;DHT22;8700;48.222;16.342;2023-04-25T12:36:59;16.50;99.90
17170;DHT22;8700;48.222;16.342;2023-04-25T12:40:22;17.00;99.90
17170;DHT22;8700;48.222;16.342;2023-04-25T12:43:44;17.40;99.90
17170;DHT22;8700;48.222;16.342;2023-04-25T12:47:05;16.80;99.90
17170;DHT22;8700;48.222;16.342;2023-04-25T12:50:27;17.10;98.60
17170;DHT22;8700;48.222;16.342;2023-04-25T12:53:49;17.30;99.30
17170;DHT22;8700;48.222;16.342;2023-04-25T12:57:12;17.20;99.10
17170;DHT22;8700;48.222;16.342;2023-04-25T13:00:33;16.60;99.90
17170;DHT22;8700;48.222;16.342;2023-04-25T13:03:55;16.40;99.90
17170;DHT22;8700;48.222;16.342;2023-04-25T13:07:16;16.90;99.90
17170;DHT22;8700;48.222;16.342;2023-04-25T13:10:38;17.70;98.60
17170;DHT22;8700;48.222;16.342;2023-04-25T13:14:01;17.90;96.80
17170;DHT22;8700;48.222;16.342;2023-04-25T13:17:23;18.40;96.30
17170;DHT22;8700;48.222;16.342;2023-04-25T13:20:44;18.80;92.40
17170;DHT22;8700;48.222;16.342;2023-04-25T13:24:06;18.90;91.40
17170;DHT22;8700;48.222;16.342;2023-04-25T13:27:28;18.90;90.40
17170;DHT22;8700;48.222;16.342;2023-04-25T13:30:51;19.00;90.80
17170;DHT22;8700;48.222;16.342;2023-04-25T13:34:13;18.50;90.60
17170;DHT22;8700;48.222;16.342;2023-04-25T13:37:38;18.70;90.50
17170;DHT22;8700;48.222;16.342;2023-04-25T13:40:59;18.70;88.20
17170;DHT22;8700;48.222;16.342;2023-04-25T13:44:21;19.10;84.00
17170;DHT22;8700;48.222;16.342;2023-04-25T13:47:44;19.10;80.90
17170;DHT22;8700;48.222;16.342;2023-04-25T13:51:05;19.10;80.60
17170;DHT22;8700;48.222;16.342;2023-04-25T13:54:27;18.80;82.30
17170;DHT22;8700;48.222;16.342;2023-04-25T13:57:48;18.80;86.70
17170;DHT22;8700;48.222;16.342;2023-04-25T14:01:10;18.20;90.30
17170;DHT22;8700;48.222;16.342;2023-04-25T14:04:33;18.00;90.90
17170;DHT22;8700;48.222;16.342;2023-04-25T14:07:54;17.70;91.50
17170;DHT22;8700;48.222;16.342;2023-04-25T14:11:16;18.30;91.20
17170;DHT22;8700;48.222;16.342;2023-04-25T14:14:38;18.70;90.40
17170;DHT22;8700;48.222;16.342;2023-04-25T14:18:00;19.00;87.90
17170;DHT22;8700;48.222;16.342;2023-04-25T14:21:23;18.90;88.60
17170;DHT22;8700;48.222;16.342;2023-04-25T14:24:45;18.50;90.60
17170;DHT22;8700;48.222;16.342;2023-04-25T14:28:06;18.30;91.10
17170;DHT22;8700;48.222;16.342;2023-04-25T14:31:28;17.70;92.30
17170;DHT22;8700;48.222;16.342;2023-04-25T14:34:50;17.50;95.20
17170;DHT22;8700;48.222;16.342;2023-04-25T14:38:14;17.30;95.20
17170;DHT22;8700;48.222;16.342;2023-04-25T14:41:35;17.10;96.80
17170;DHT22;8700;48.222;16.342;2023-04-25T14:44:57;16.90;97.50
17170;DHT22;8700;48.222;16.342;2023-04-25T14:48:18;16.80;97.90
17170;DHT22;8700;48.222;16.342;2023-04-25T14:51:45;16.70;98.10
17170;DHT22;8700;48.222;16.342;2023-04-25T14:55:08;17.00;97.70
17170;DHT22;8700;48.222;16.342;2023-04-25T14:58:31;17.20;96.90
17170;DHT22;8700;48.222;16.342;2023-04-25T15:01:52;16.70;97.40
17170;DHT22;8700;48.222;16.342;2023-04-25T15:05:14;16.00;99.20
17170;DHT22;8700;48.222;16.342;2023-04-25T15:08:36;16.40;99.50
17170;DHT22;8700;48.222;16.342;2023-04-25T15:11:59;16.80;99.80
17170;DHT22;8700;48.222;16.342;2023-04-25T15:15:20;16.70;99.90
17170;DHT22;8700;48.222;16.342;2023-04-25T15:18:43;16.40;99.90
17170;DHT22;8700;48.222;16.342;2023-04-25T15:22:04;16.30;99.90
17170;DHT22;8700;48.222;16.342;2023-04-25T15:25:26;16.40;99.90
17170;DHT22;8700;48.222;16.342;2023-04-25T15:28:49;16.60;99.90
17170;DHT22;8700;48.222;16.342;2023-04-25T15:32:12;16.40;99.90
17170;DHT22;8700;48.222;16.342;2023-04-25T15:35:34;16.30;99.90
17170;DHT22;8700;48.222;16.342;2023-04-25T15:38:55;16.20;99.90
17170;DHT22;8700;48.222;16.342;2023-04-25T15:42:17;15.90;99.90
17170;DHT22;8700;48.222;16.342;2023-04-25T15:45:40;15.90;99.90
17170;DHT22;8700;48.222;16.342;2023-04-25T15:49:02;15.70;99.90
17170;DHT22;8700;48.222;16.342;2023-04-25T15:52:23;15.50;99.90
17170;DHT22;8700;48.222;16.342;2023-04-25T15:55:46;15.40;99.90
17170;DHT22;8700;48.222;16.342;2023-04-25T15:59:08;15.30;99.90
17170;DHT22;8700;48.222;16.342;2023-04-25T16:02:31;15.10;99.90
17170;DHT22;8700;48.222;16.342;2023-04-25T16:05:53;15.10;99.90
17170;DHT22;8700;48.222;16.342;2023-04-25T16:09:14;14.80;99.90
17170;DHT22;8700;48.222;16.342;2023-04-25T16:12:37;14.80;99.90
17170;DHT22;8700;48.222;16.342;2023-04-25T16:15:58;14.80;99.90
17170;DHT22;8700;48.222;16.342;2023-04-25T16:19:21;14.90;99.90
17170;DHT22;8700;48.222;16.342;2023-04-25T16:22:43;15.00;99.90
17170;DHT22;8700;48.222;16.342;2023-04-25T16:26:04;15.00;99.90
17170;DHT22;8700;48.222;16.342;2023-04-25T16:29:28;15.10;99.90
17170;DHT22;8700;48.222;16.342;2023-04-25T16:32:49;15.10;99.90
17170;DHT22;8700;48.222;16.342;2023-04-25T16:36:12;15.00;99.90
17170;DHT22;8700;48.222;16.342;2023-04-25T16:39:34;14.90;99.90
17170;DHT22;8700;48.222;16.342;2023-04-25T16:42:56;14.70;99.90
17170;DHT22;8700;48.222;16.342;2023-04-25T16:46:20;14.70;99.90
17170;DHT22;8700;48.222;16.342;2023-04-25T16:49:42;14.50;99.90
17170;DHT22;8700;48.222;16.342;2023-04-25T16:53:05;14.30;99.90
17170;DHT22;8700;48.222;16.342;2023-04-25T16:56:27;14.40;99.90
17170;DHT22;8700;48.222;16.342;2023-04-25T16:59:48;14.40;99.90
17170;DHT22;8700;48.222;16.342;2023-04-25T17:03:12;14.30;99.90
17170;DHT22;8700;48.222;16.342;2023-04-25T17:06:33;14.40;99.90
17170;DHT22;8700;48.222;16.342;2023-04-25T17:09:58;14.60;99.90
17170;DHT22;8700;48.222;16.342;2023-04-25T17:13:20;14.60;99.90
17170;DHT22;8700;48.222;16.342;2023-04-25T17:16:41;14.60;99.90
17170;DHT22;8700;48.222;16.342;2023-04-25T17:20:03;14.50;99.90
17170;DHT22;8700;48.222;16.342;2023-04-25T17:23:29;14.30;99.90
17170;DHT22;8700;48.222;16.342;2023-04-25T17:26:53;13.90;99.90
17170;DHT22;8700;48.222;16.342;2023-04-25T17:30:15;13.40;99.90
17170;DHT22;8700;48.222;16.342;2023-04-25T17:33:40;13.40;99.90
17170;DHT22;8700;48.222;16.342;2023-04-25T17:37:01;13.50;99.90
17170;DHT22;8700;48.222;16.342;2023-04-25T17:40:23;13.60;99.90
17170;DHT22;8700;48.222;16.342;2023-04-25T17:43:46;13.60;99.90
17170;DHT22;8700;48.222;16.342;2023-04-25T17:47:07;13.50;99.90
17170;DHT22;8700;48.222;16.342;2023-04-25T17:50:30;13.50;99.90
17170;DHT22;8700;48.222;16.342;2023-04-25T17:53:52;13.40;99.90
17170;DHT22;8700;48.222;16.342;2023-04-25T17:57:14;13.20;99.90
17170;DHT22;8700;48.222;16.342;2023-04-25T18:00:37;12.80;99.90
17170;DHT22;8700;48.222;16.342;2023-04-25T18:04:00;12.60;99.90
17170;DHT22;8700;48.222;16.342;2023-04-25T18:07:23;12.40;99.90
17170;DHT22;8700;48.222;16.342;2023-04-25T18:10:44;12.60;99.90
17170;DHT22;8700;48.222;16.342;2023-04-25T18:14:08;12.90;99.90
17170;DHT22;8700;48.222;16.342;2023-04-25T18:17:35;12.90;99.90
17170;DHT22;8700;48.222;16.342;2023-04-25T18:20:59;12.90;99.90
17170;DHT22;8700;48.222;16.342;2023-04-25T18:24:23;12.80;99.90
17170;DHT22;8700;48.222;16.342;2023-04-25T18:27:46;12.70;99.90
17170;DHT22;8700;48.222;16.342;2023-04-25T18:31:09;12.50;99.90
17170;DHT22;8700;48.222;16.342;2023-04-25T18:34:33;12.40;99.90
17170;DHT22;8700;48.222;16.342;2023-04-25T18:37:55;12.40;99.90
17170;DHT22;8700;48.222;16.342;2023-04-25T18:41:17;12.20;99.90
17170;DHT22;8700;48.222;16.342;2023-04-25T18:44:42;12.10;99.90
17170;DHT22;8700;48.222;16.342;2023-04-25T18:48:04;12.00;99.90
17170;DHT22;8700;48.222;16.342;2023-04-25T18:51:28;12.00;99.90
17170;DHT22;8700;48.222;16.342;2023-04-25T18:54:50;12.00;99.90
17170;DHT22;8700;48.222;16.342;2023-04-25T18:58:12;11.90;99.90
17170;DHT22;8700;48.222;16.342;2023-04-25T19:01:38;11.80;99.90
17170;DHT22;8700;48.222;16.342;2023-04-25T19:05:01;11.80;99.90
17170;DHT22;8700;48.222;16.342;2023-04-25T19:08:24;11.80;99.90
17170;DHT22;8700;48.222;16.342;2023-04-25T19:11:46;11.90;99.90
17170;DHT22;8700;48.222;16.342;2023-04-25T19:15:08;11.80;99.90
17170;DHT22;8700;48.222;16.342;2023-04-25T19:18:30;11.90;99.90
17170;DHT22;8700;48.222;16.342;2023-04-25T19:21:51;11.70;99.90
17170;DHT22;8700;48.222;16.342;2023-04-25T19:25:14;11.90;99.90
17170;DHT22;8700;48.222;16.342;2023-04-25T19:28:36;11.80;99.90
17170;DHT22;8700;48.222;16.342;2023-04-25T19:31:58;11.80;99.90
17170;DHT22;8700;48.222;16.342;2023-04-25T19:35:22;11.70;99.90
17170;DHT22;8700;48.222;16.342;2023-04-25T19:38:45;11.80;99.90
17170;DHT22;8700;48.222;16.342;2023-04-25T19:42:10;11.90;99.90
17170;DHT22;8700;48.222;16.342;2023-04-25T19:45:32;11.80;99.90
17170;DHT22;8700;48.222;16.342;2023-04-25T19:48:57;11.80;99.90
17170;DHT22;8700;48.222;16.342;2023-04-25T19:52:19;11.80;99.90
17170;DHT22;8700;48.222;16.342;2023-04-25T19:55:40;11.70;99.90
17170;DHT22;8700;48.222;16.342;2023-04-25T19:59:04;11.60;99.90
17170;DHT22;8700;48.222;16.342;2023-04-25T20:02:26;11.60;99.90
17170;DHT22;8700;48.222;16.342;2023-04-25T20:05:47;11.70;99.90
17170;DHT22;8700;48.222;16.342;2023-04-25T20:09:09;11.80;99.90
17170;DHT22;8700;48.222;16.342;2023-04-25T20:12:32;11.80;99.90
17170;DHT22;8700;48.222;16.342;2023-04-25T20:15:59;11.60;99.90
17170;DHT22;8700;48.222;16.342;2023-04-25T20:19:21;11.70;99.90
17170;DHT22;8700;48.222;16.342;2023-04-25T20:22:43;11.50;99.90
17170;DHT22;8700;48.222;16.342;2023-04-25T20:26:11;11.70;99.90
17170;DHT22;8700;48.222;16.342;2023-04-25T20:29:33;11.80;99.90
17170;DHT22;8700;48.222;16.342;2023-04-25T20:32:56;11.60;99.90
17170;DHT22;8700;48.222;16.342;2023-04-25T20:36:17;11.50;99.90
17170;DHT22;8700;48.222;16.342;2023-04-25T20:39:38;11.60;99.90
17170;DHT22;8700;48.222;16.342;2023-04-25T20:43:00;11.70;99.90
17170;DHT22;8700;48.222;16.342;2023-04-25T20:46:23;11.70;99.90
17170;DHT22;8700;48.222;16.342;2023-04-25T20:49:47;11.60;99.90
17170;DHT22;8700;48.222;16.342;2023-04-25T20:53:09;11.50;99.90
17170;DHT22;8700;48.222;16.342;2023-04-25T20:56:31;11.50;99.90
17170;DHT22;8700;48.222;16.342;2023-04-25T20:59:52;11.50;99.90
17170;DHT22;8700;48.222;16.342;2023-04-25T21:03:17;11.40;99.90
17170;DHT22;8700;48.222;16.342;2023-04-25T21:06:40;11.40;99.90
17170;DHT22;8700;48.222;16.342;2023-04-25T21:10:02;11.50;99.90
17170;DHT22;8700;48.222;16.342;2023-04-25T21:13:23;11.10;99.90
17170;DHT22;8700;48.222;16.342;2023-04-25T21:16:46;10.70;99.90
17170;DHT22;8700;48.222;16.342;2023-04-25T21:20:09;10.80;99.90